SWA4494 KSBA-KSAN
Flight info
| Callsign | SWA4494 |
|---|---|
| Flight time | 0h 39m |
| Altitude | 25000 |
| Route | MISHN5 SXC COMIX2 |
| Aircraft | B738/M-SDE2E3FGHIRWXY/LB1 |
Departure
| Time | 2026-05-07 16:42 |
|---|---|
| Airport | Santa Barbara Municipal Airport (KSBA) |
Arrival
| Time | 2026-05-07 17:21 |
|---|---|
| Airport | San Diego International Airport (KSAN) |
| Time | Latitude | Longitude | Altitude | Speed | Heading |
|---|---|---|---|---|---|
| 2026-05-07 16:13 | 34.42426 | -119.83699 | 17 ft | 0 kts | 105° |
| 2026-05-07 16:32 | 34.42428 | -119.83707 | 17 ft | 2 kts | 104° |
| 2026-05-07 16:32 | 34.42432 | -119.83726 | 17 ft | 2 kts | 98° |
| 2026-05-07 16:32 | 34.42431 | -119.83746 | 21 ft | 2 kts | 58° |
| 2026-05-07 16:32 | 34.42418 | -119.83756 | 19 ft | 2 kts | 358° |
| 2026-05-07 16:33 | 34.42412 | -119.83756 | 19 ft | 0 kts | 349° |
| 2026-05-07 16:37 | 34.42416 | -119.83757 | 18 ft | 2 kts | 349° |
| 2026-05-07 16:37 | 34.42433 | -119.83762 | 18 ft | 4 kts | 346° |
| 2026-05-07 16:37 | 34.42478 | -119.83776 | 18 ft | 10 kts | 345° |
| 2026-05-07 16:38 | 34.42557 | -119.83801 | 17 ft | 13 kts | 345° |
| 2026-05-07 16:38 | 34.42640 | -119.83826 | 18 ft | 8 kts | 354° |
| 2026-05-07 16:38 | 34.42672 | -119.83780 | 17 ft | 8 kts | 85° |
| 2026-05-07 16:38 | 34.42674 | -119.83712 | 17 ft | 8 kts | 87° |
| 2026-05-07 16:39 | 34.42675 | -119.83646 | 17 ft | 8 kts | 90° |
| 2026-05-07 16:39 | 34.42677 | -119.83581 | 17 ft | 8 kts | 84° |
| 2026-05-07 16:39 | 34.42679 | -119.83519 | 17 ft | 7 kts | 91° |
| 2026-05-07 16:39 | 34.42696 | -119.83467 | 18 ft | 7 kts | 29° |
| 2026-05-07 16:40 | 34.42704 | -119.83464 | 17 ft | 0 kts | 13° |
| 2026-05-07 16:40 | 34.42706 | -119.83463 | 17 ft | 1 kts | 13° |
| 2026-05-07 16:40 | 34.42734 | -119.83460 | 17 ft | 6 kts | 359° |
| 2026-05-07 16:41 | 34.42780 | -119.83482 | 19 ft | 8 kts | 314° |
| 2026-05-07 16:41 | 34.42790 | -119.83527 | 17 ft | 9 kts | 269° |
| 2026-05-07 16:41 | 34.42782 | -119.83938 | 19 ft | 86 kts | 268° |
| 2026-05-07 16:41 | 34.42756 | -119.84973 | 22 ft | 156 kts | 264° |
| 2026-05-07 16:42 | 34.42722 | -119.85892 | 324 ft | 171 kts | 266° |
| 2026-05-07 16:42 | 34.42659 | -119.87400 | 1089 ft | 182 kts | 266° |
| 2026-05-07 16:42 | 34.42593 | -119.88936 | 1995 ft | 189 kts | 267° |
| 2026-05-07 16:42 | 34.42311 | -119.91235 | 2384 ft | 230 kts | 245° |
| 2026-05-07 16:43 | 34.41234 | -119.92726 | 2874 ft | 245 kts | 214° |
| 2026-05-07 16:43 | 34.40190 | -119.93426 | 3092 ft | 263 kts | 206° |
| 2026-05-07 16:43 | 34.38501 | -119.94357 | 3754 ft | 274 kts | 205° |
| 2026-05-07 16:43 | 34.36754 | -119.95323 | 4691 ft | 276 kts | 206° |
| 2026-05-07 16:44 | 34.34899 | -119.95989 | 5486 ft | 285 kts | 181° |
| 2026-05-07 16:44 | 34.32974 | -119.95543 | 6489 ft | 279 kts | 160° |
| 2026-05-07 16:44 | 34.31159 | -119.94713 | 7395 ft | 280 kts | 157° |
| 2026-05-07 16:44 | 34.29349 | -119.93818 | 8254 ft | 282 kts | 157° |
| 2026-05-07 16:45 | 34.27530 | -119.92918 | 9178 ft | 283 kts | 156° |
| 2026-05-07 16:45 | 34.25688 | -119.92023 | 10012 ft | 287 kts | 157° |
| 2026-05-07 16:45 | 34.23794 | -119.91116 | 10516 ft | 304 kts | 157° |
| 2026-05-07 16:45 | 34.21741 | -119.90140 | 10693 ft | 330 kts | 157° |
| 2026-05-07 16:46 | 34.19579 | -119.88984 | 11004 ft | 347 kts | 146° |
| 2026-05-07 16:46 | 34.17854 | -119.86942 | 11601 ft | 351 kts | 121° |
| 2026-05-07 16:46 | 34.16922 | -119.84276 | 12330 ft | 352 kts | 101° |
| 2026-05-07 16:46 | 34.16510 | -119.81350 | 13067 ft | 355 kts | 97° |
| 2026-05-07 16:47 | 34.16158 | -119.78379 | 13751 ft | 360 kts | 96° |
| 2026-05-07 16:47 | 34.15805 | -119.75364 | 14398 ft | 365 kts | 96° |
| 2026-05-07 16:47 | 34.15436 | -119.72320 | 15080 ft | 367 kts | 97° |
| 2026-05-07 16:47 | 34.15053 | -119.69262 | 15756 ft | 370 kts | 97° |
| 2026-05-07 16:48 | 34.14658 | -119.66180 | 16411 ft | 374 kts | 97° |
| 2026-05-07 16:48 | 34.14254 | -119.63066 | 17061 ft | 377 kts | 97° |
| 2026-05-07 16:48 | 34.13845 | -119.59931 | 17696 ft | 381 kts | 97° |
| 2026-05-07 16:48 | 34.13330 | -119.56771 | 18281 ft | 387 kts | 106° |
| 2026-05-07 16:49 | 34.12049 | -119.53887 | 18807 ft | 396 kts | 124° |
| 2026-05-07 16:49 | 34.10375 | -119.51304 | 19421 ft | 397 kts | 126° |
| 2026-05-07 16:49 | 34.08636 | -119.48697 | 19948 ft | 401 kts | 127° |
| 2026-05-07 16:49 | 34.06869 | -119.46067 | 20460 ft | 406 kts | 127° |
| 2026-05-07 16:50 | 34.05087 | -119.43405 | 20982 ft | 409 kts | 127° |
| 2026-05-07 16:50 | 34.03302 | -119.40725 | 21513 ft | 412 kts | 127° |
| 2026-05-07 16:50 | 34.01506 | -119.38016 | 22016 ft | 415 kts | 126° |
| 2026-05-07 16:50 | 33.99701 | -119.35283 | 22508 ft | 419 kts | 126° |
| 2026-05-07 16:51 | 33.97880 | -119.32523 | 22998 ft | 422 kts | 127° |
| 2026-05-07 16:51 | 33.96049 | -119.29746 | 23548 ft | 424 kts | 127° |
| 2026-05-07 16:51 | 33.94246 | -119.27013 | 24142 ft | 421 kts | 127° |
| 2026-05-07 16:51 | 33.92429 | -119.24261 | 24746 ft | 418 kts | 126° |
| 2026-05-07 16:52 | 33.90620 | -119.21523 | 25061 ft | 419 kts | 126° |
| 2026-05-07 16:52 | 33.88811 | -119.18785 | 25084 ft | 417 kts | 126° |
| 2026-05-07 16:52 | 33.87001 | -119.16049 | 25099 ft | 418 kts | 126° |
| 2026-05-07 16:52 | 33.85190 | -119.13312 | 25107 ft | 419 kts | 126° |
| 2026-05-07 16:53 | 33.83373 | -119.10569 | 25101 ft | 419 kts | 126° |
| 2026-05-07 16:53 | 33.81553 | -119.07824 | 25107 ft | 420 kts | 126° |
| 2026-05-07 16:53 | 33.79758 | -119.05119 | 25095 ft | 420 kts | 126° |
| 2026-05-07 16:53 | 33.77935 | -119.02373 | 25100 ft | 421 kts | 127° |
| 2026-05-07 16:54 | 33.76109 | -118.99625 | 25106 ft | 421 kts | 127° |
| 2026-05-07 16:54 | 33.74282 | -118.96878 | 25102 ft | 421 kts | 127° |
| 2026-05-07 16:54 | 33.72456 | -118.94135 | 25101 ft | 420 kts | 126° |
| 2026-05-07 16:54 | 33.70631 | -118.91396 | 25103 ft | 420 kts | 126° |
| 2026-05-07 16:55 | 33.68807 | -118.88660 | 25094 ft | 419 kts | 126° |
| 2026-05-07 16:55 | 33.66986 | -118.85930 | 25094 ft | 418 kts | 126° |
| 2026-05-07 16:55 | 33.65165 | -118.83202 | 25101 ft | 418 kts | 126° |
| 2026-05-07 16:55 | 33.63350 | -118.80484 | 25096 ft | 418 kts | 126° |
| 2026-05-07 16:56 | 33.61532 | -118.77766 | 25102 ft | 418 kts | 126° |
| 2026-05-07 16:56 | 33.59741 | -118.75088 | 25097 ft | 418 kts | 126° |
| 2026-05-07 16:56 | 33.56100 | -118.69651 | 25103 ft | 418 kts | 126° |
| 2026-05-07 16:57 | 33.54277 | -118.66932 | 25098 ft | 418 kts | 126° |
| 2026-05-07 16:57 | 33.52455 | -118.64218 | 25108 ft | 418 kts | 126° |
| 2026-05-07 16:57 | 33.50630 | -118.61501 | 25105 ft | 418 kts | 126° |
| 2026-05-07 16:57 | 33.48805 | -118.58784 | 25107 ft | 418 kts | 126° |
| 2026-05-07 16:58 | 33.46979 | -118.56069 | 25106 ft | 419 kts | 126° |
| 2026-05-07 16:58 | 33.45152 | -118.53352 | 25116 ft | 419 kts | 126° |
| 2026-05-07 16:58 | 33.43350 | -118.50675 | 25109 ft | 419 kts | 126° |
| 2026-05-07 16:58 | 33.41520 | -118.47959 | 25106 ft | 419 kts | 126° |
| 2026-05-07 16:59 | 33.39688 | -118.45244 | 25111 ft | 419 kts | 126° |
| 2026-05-07 16:59 | 33.37976 | -118.42445 | 25096 ft | 415 kts | 115° |
| 2026-05-07 16:59 | 33.37020 | -118.39232 | 25115 ft | 407 kts | 98° |
| 2026-05-07 16:59 | 33.36570 | -118.35947 | 25122 ft | 393 kts | 95° |
| 2026-05-07 17:00 | 33.36191 | -118.32738 | 24828 ft | 387 kts | 95° |
| 2026-05-07 17:00 | 33.35816 | -118.29575 | 24508 ft | 383 kts | 95° |
| 2026-05-07 17:00 | 33.35421 | -118.26433 | 24122 ft | 380 kts | 96° |
| 2026-05-07 17:00 | 33.35010 | -118.23321 | 23740 ft | 378 kts | 96° |
| 2026-05-07 17:01 | 33.34600 | -118.20274 | 23282 ft | 375 kts | 96° |
| 2026-05-07 17:01 | 33.34160 | -118.17204 | 22835 ft | 373 kts | 97° |
| 2026-05-07 17:01 | 33.33687 | -118.14169 | 22437 ft | 370 kts | 97° |
| 2026-05-07 17:01 | 33.33207 | -118.11164 | 22016 ft | 366 kts | 97° |
| 2026-05-07 17:02 | 33.32730 | -118.08185 | 21621 ft | 364 kts | 97° |
| 2026-05-07 17:02 | 33.32258 | -118.05226 | 21228 ft | 361 kts | 97° |
| 2026-05-07 17:02 | 33.31792 | -118.02291 | 20836 ft | 358 kts | 97° |
| 2026-05-07 17:02 | 33.31342 | -117.99448 | 20456 ft | 355 kts | 97° |
| 2026-05-07 17:03 | 33.30885 | -117.96553 | 20076 ft | 353 kts | 97° |
| 2026-05-07 17:03 | 33.30436 | -117.93718 | 19697 ft | 351 kts | 97° |
| 2026-05-07 17:03 | 33.29983 | -117.90855 | 19316 ft | 349 kts | 97° |
| 2026-05-07 17:03 | 33.29534 | -117.88016 | 18936 ft | 347 kts | 97° |
| 2026-05-07 17:04 | 33.29085 | -117.85190 | 18561 ft | 345 kts | 97° |
| 2026-05-07 17:04 | 33.28639 | -117.82379 | 18141 ft | 344 kts | 97° |
| 2026-05-07 17:04 | 33.28192 | -117.79573 | 17726 ft | 342 kts | 97° |
| 2026-05-07 17:04 | 33.27749 | -117.76793 | 17326 ft | 340 kts | 97° |
| 2026-05-07 17:05 | 33.27307 | -117.74026 | 16940 ft | 337 kts | 97° |
| 2026-05-07 17:05 | 33.26869 | -117.71279 | 16529 ft | 336 kts | 97° |
| 2026-05-07 17:05 | 33.26436 | -117.68576 | 16118 ft | 335 kts | 98° |
| 2026-05-07 17:05 | 33.25998 | -117.65847 | 15738 ft | 333 kts | 98° |
| 2026-05-07 17:06 | 33.25554 | -117.63143 | 15352 ft | 332 kts | 100° |
| 2026-05-07 17:06 | 33.24708 | -117.60573 | 14981 ft | 335 kts | 117° |
| 2026-05-07 17:06 | 33.23309 | -117.58354 | 14678 ft | 336 kts | 132° |
| 2026-05-07 17:06 | 33.21573 | -117.56497 | 14389 ft | 334 kts | 136° |
| 2026-05-07 17:07 | 33.19806 | -117.54697 | 14078 ft | 334 kts | 136° |
| 2026-05-07 17:07 | 33.18048 | -117.52890 | 13751 ft | 333 kts | 136° |
| 2026-05-07 17:07 | 33.16307 | -117.51075 | 13419 ft | 332 kts | 136° |
| 2026-05-07 17:07 | 33.14575 | -117.49259 | 13096 ft | 330 kts | 136° |
| 2026-05-07 17:08 | 33.12839 | -117.47536 | 12787 ft | 329 kts | 141° |
| 2026-05-07 17:08 | 33.10968 | -117.45976 | 12491 ft | 328 kts | 143° |
| 2026-05-07 17:08 | 33.09085 | -117.44456 | 12192 ft | 326 kts | 143° |
| 2026-05-07 17:08 | 33.07222 | -117.42932 | 11895 ft | 324 kts | 143° |
| 2026-05-07 17:09 | 33.05379 | -117.41409 | 11609 ft | 321 kts | 142° |
| 2026-05-07 17:09 | 33.03550 | -117.39884 | 11313 ft | 319 kts | 142° |
| 2026-05-07 17:09 | 33.01741 | -117.38366 | 11023 ft | 318 kts | 142° |
| 2026-05-07 17:09 | 32.99949 | -117.36861 | 10736 ft | 314 kts | 142° |
| 2026-05-07 17:10 | 32.98171 | -117.35369 | 10445 ft | 310 kts | 142° |
| 2026-05-07 17:10 | 32.96420 | -117.33899 | 10166 ft | 305 kts | 142° |
| 2026-05-07 17:10 | 32.94710 | -117.32468 | 9931 ft | 294 kts | 142° |
| 2026-05-07 17:10 | 32.93112 | -117.31132 | 9764 ft | 279 kts | 142° |
| 2026-05-07 17:11 | 32.91552 | -117.29828 | 9535 ft | 264 kts | 142° |
| 2026-05-07 17:11 | 32.90103 | -117.28622 | 9383 ft | 245 kts | 142° |
| 2026-05-07 17:11 | 32.88753 | -117.27501 | 9243 ft | 229 kts | 142° |
| 2026-05-07 17:11 | 32.87445 | -117.26411 | 8782 ft | 236 kts | 143° |
| 2026-05-07 17:12 | 32.86057 | -117.25254 | 8529 ft | 254 kts | 143° |
| 2026-05-07 17:12 | 32.84568 | -117.24015 | 8274 ft | 265 kts | 143° |
| 2026-05-07 17:12 | 32.83041 | -117.22747 | 8013 ft | 271 kts | 143° |
| 2026-05-07 17:12 | 32.81573 | -117.21364 | 7731 ft | 268 kts | 128° |
| 2026-05-07 17:13 | 32.80741 | -117.19435 | 7515 ft | 261 kts | 105° |
| 2026-05-07 17:13 | 32.80272 | -117.17376 | 7261 ft | 258 kts | 103° |
| 2026-05-07 17:13 | 32.79846 | -117.15362 | 7026 ft | 256 kts | 103° |
| 2026-05-07 17:13 | 32.79408 | -117.13316 | 6794 ft | 254 kts | 103° |
| 2026-05-07 17:14 | 32.78966 | -117.11301 | 6550 ft | 249 kts | 103° |
| 2026-05-07 17:14 | 32.78532 | -117.09347 | 6329 ft | 240 kts | 103° |
| 2026-05-07 17:14 | 32.78115 | -117.07476 | 6122 ft | 230 kts | 103° |
| 2026-05-07 17:14 | 32.77703 | -117.05671 | 5955 ft | 220 kts | 104° |
| 2026-05-07 17:15 | 32.77284 | -117.03943 | 5727 ft | 215 kts | 104° |
| 2026-05-07 17:15 | 32.76872 | -117.02259 | 5554 ft | 210 kts | 104° |
| 2026-05-07 17:15 | 32.76465 | -117.00596 | 5392 ft | 210 kts | 104° |
| 2026-05-07 17:15 | 32.76065 | -116.98954 | 5224 ft | 212 kts | 104° |
| 2026-05-07 17:16 | 32.75452 | -116.97357 | 4969 ft | 219 kts | 131° |
| 2026-05-07 17:16 | 32.74147 | -116.96522 | 4722 ft | 221 kts | 174° |
| 2026-05-07 17:16 | 32.72679 | -116.96794 | 4525 ft | 211 kts | 197° |
| 2026-05-07 17:16 | 32.71239 | -116.97270 | 4081 ft | 216 kts | 195° |
| 2026-05-07 17:17 | 32.69819 | -116.97796 | 3783 ft | 213 kts | 208° |
| 2026-05-07 17:17 | 32.68834 | -116.99023 | 3485 ft | 206 kts | 252° |
| 2026-05-07 17:17 | 32.68844 | -117.00646 | 3236 ft | 196 kts | 292° |
| 2026-05-07 17:17 | 32.69296 | -117.02152 | 2991 ft | 192 kts | 288° |
| 2026-05-07 17:18 | 32.69659 | -117.03650 | 2736 ft | 185 kts | 287° |
| 2026-05-07 17:18 | 32.70002 | -117.05095 | 2434 ft | 180 kts | 286° |
| 2026-05-07 17:18 | 32.70330 | -117.06479 | 2221 ft | 171 kts | 286° |
| 2026-05-07 17:18 | 32.70646 | -117.07774 | 2143 ft | 156 kts | 287° |
| 2026-05-07 17:19 | 32.70945 | -117.08987 | 1896 ft | 152 kts | 286° |
| 2026-05-07 17:19 | 32.71236 | -117.10173 | 1618 ft | 146 kts | 285° |
| 2026-05-07 17:19 | 32.71497 | -117.11285 | 1442 ft | 137 kts | 285° |
| 2026-05-07 17:19 | 32.71764 | -117.12387 | 1225 ft | 140 kts | 285° |
| 2026-05-07 17:20 | 32.72024 | -117.13501 | 1015 ft | 141 kts | 285° |
| 2026-05-07 17:20 | 32.72295 | -117.14621 | 785 ft | 142 kts | 285° |
| 2026-05-07 17:20 | 32.72570 | -117.15742 | 558 ft | 141 kts | 286° |
| 2026-05-07 17:20 | 32.72843 | -117.16858 | 310 ft | 140 kts | 286° |
| 2026-05-07 17:21 | 32.73112 | -117.17947 | 68 ft | 137 kts | 286° |
| 2026-05-07 17:21 | 32.73358 | -117.18965 | 22 ft | 116 kts | 285° |
| 2026-05-07 17:21 | 32.73515 | -117.19622 | 23 ft | 28 kts | 285° |
| 2026-05-07 17:21 | 32.73521 | -117.19799 | 24 ft | 12 kts | 251° |
| 2026-05-07 17:22 | 32.73502 | -117.19861 | 25 ft | 8 kts | 250° |
| 2026-05-07 17:22 | 32.73484 | -117.19922 | 22 ft | 8 kts | 243° |
| 2026-05-07 17:22 | 32.73446 | -117.19956 | 23 ft | 7 kts | 171° |
| 2026-05-07 17:22 | 32.73403 | -117.19923 | 22 ft | 7 kts | 149° |
| 2026-05-07 17:23 | 32.73373 | -117.19903 | 22 ft | 0 kts | 149° |